Time;durP1;ratioP1;P1;durP2;ratioP2;P2;SDS_P1;SDS_P2;PMS_P1;PMS_P2;Temp;Humidity;BMP_temperature;BMP_pressure;BME280_temperature;BME280_humidity;BME280_pressure;Samples;Min_cycle;Max_cycle;Signal;HPM_P1;HPM_P2
2022/07/17 00:02:13;;;;;;;2.10;1.90;;;;;;;29.93;31.00;97075.72;5075144;28;20394;-30
2022/07/17 00:04:39;;;;;;;2.53;1.90;;;;;;;29.92;30.87;97079.09;5078393;28;20032;-30
2022/07/17 00:07:04;;;;;;;3.40;1.90;;;;;;;29.89;30.45;97074.56;5091330;28;20024;-30
2022/07/17 00:09:30;;;;;;;2.15;1.73;;;;;;;29.85;30.67;97069.31;5076366;28;20502;-30
2022/07/17 00:11:55;;;;;;;1.83;1.73;;;;;;;29.91;30.59;97072.00;5071104;28;20024;-29
2022/07/17 00:14:21;;;;;;;4.28;1.83;;;;;;;29.88;30.99;97070.28;5074748;28;20028;-30
2022/07/17 00:16:46;;;;;;;2.75;1.80;;;;;;;29.91;30.90;97080.38;5076055;28;20063;-31
2022/07/17 00:19:12;;;;;;;2.38;1.90;;;;;;;29.89;30.86;97069.72;5076096;28;20032;-30
2022/07/17 00:21:38;;;;;;;3.03;1.90;;;;;;;29.89;30.49;97066.19;5076314;28;20028;-31
2022/07/17 00:24:06;;;;;;;1.63;1.52;;;;;;;29.92;30.26;97065.81;5075947;28;20067;-29
2022/07/17 00:26:32;;;;;;;2.65;1.85;;;;;;;29.81;30.34;97070.91;5075837;28;20020;-30
2022/07/17 00:28:58;;;;;;;4.60;1.90;;;;;;;29.83;30.75;97062.75;5075879;28;20021;-30
2022/07/17 00:31:23;;;;;;;2.35;1.63;;;;;;;29.79;31.30;97063.09;5075725;28;20047;-30
2022/07/17 00:33:49;;;;;;;2.60;1.73;;;;;;;29.83;30.45;97068.31;5076040;28;20024;-30
2022/07/17 00:36:14;;;;;;;2.17;1.90;;;;;;;29.81;30.27;97068.13;5075668;28;20505;-30
2022/07/17 00:38:40;;;;;;;5.32;2.17;;;;;;;29.86;30.54;97062.41;5075677;28;20444;-30
2022/07/17 00:41:06;;;;;;;2.63;1.75;;;;;;;29.82;30.86;97069.63;5075696;28;21572;-30
2022/07/17 00:43:32;;;;;;;1.90;1.52;;;;;;;29.83;30.70;97068.31;5075601;28;20024;-30
2022/07/17 00:46:00;;;;;;;3.53;1.77;;;;;;;29.80;30.67;97064.56;5075261;28;20478;-30
2022/07/17 00:48:26;;;;;;;2.22;1.77;;;;;;;29.78;30.68;97069.22;5074865;28;20024;-29
2022/07/17 00:50:53;;;;;;;2.90;1.70;;;;;;;29.82;31.14;97066.81;5075359;28;20024;-29
2022/07/17 00:53:18;;;;;;;3.22;2.00;;;;;;;29.79;30.96;97063.09;5075513;28;20029;-29
2022/07/17 00:55:47;;;;;;;1.80;1.70;;;;;;;29.73;30.56;97061.69;5075692;28;20036;-30
2022/07/17 00:58:22;;;;;;;2.25;1.85;;;;;;;29.74;30.56;97060.41;5075536;28;20024;-30
2022/07/17 01:00:53;;;;;;;2.00;1.80;;;;;;;29.76;30.32;97055.78;5075583;28;20024;-31
2022/07/17 01:03:20;;;;;;;2.35;1.80;;;;;;;29.80;30.14;97064.56;5075380;28;20028;-30
2022/07/17 01:05:46;;;;;;;2.63;2.08;;;;;;;29.74;30.54;97052.75;5075509;28;20100;-31
2022/07/17 01:08:12;;;;;;;1.65;1.55;;;;;;;29.74;30.82;97061.16;5075144;28;20021;-31
2022/07/17 01:10:38;;;;;;;1.67;1.50;;;;;;;29.75;30.75;97056.31;5075348;28;20083;-30
2022/07/17 01:13:05;;;;;;;1.88;1.67;;;;;;;29.74;30.47;97055.56;5075154;28;20021;-30
2022/07/17 01:15:32;;;;;;;1.60;1.50;;;;;;;29.70;30.17;97051.59;5075169;28;20436;-30
2022/07/17 01:17:59;;;;;;;2.42;1.60;;;;;;;29.72;30.68;97057.38;5073921;28;20081;-30
2022/07/17 01:20:25;;;;;;;2.03;1.80;;;;;;;29.71;30.42;97053.09;5075146;28;20031;-30
2022/07/17 01:22:51;;;;;;;1.52;1.40;;;;;;;29.73;30.73;97054.06;5074755;28;20021;-30
2022/07/17 01:25:20;;;;;;;1.88;1.60;;;;;;;29.69;30.56;97055.66;5074891;28;20024;-30
2022/07/17 01:27:45;;;;;;;1.98;1.83;;;;;;;29.70;30.46;97051.59;5074792;28;20024;-30
2022/07/17 01:30:11;;;;;;;1.85;1.75;;;;;;;29.71;30.64;97050.28;5074947;28;20042;-30
2022/07/17 01:32:41;;;;;;;2.47;1.60;;;;;;;29.70;30.62;97048.78;5074605;28;20020;-30
2022/07/17 01:35:08;;;;;;;2.25;1.63;;;;;;;29.71;30.84;97053.84;5074749;28;20478;-29
2022/07/17 01:37:34;;;;;;;2.08;1.70;;;;;;;29.67;30.46;97052.69;5074835;28;20047;-30
2022/07/17 01:40:00;;;;;;;2.63;1.90;;;;;;;29.63;30.38;97053.75;5074570;28;20433;-31
2022/07/17 01:42:27;;;;;;;2.78;1.83;;;;;;;29.65;30.76;97053.97;5074584;28;20099;-29
2022/07/17 01:44:55;;;;;;;2.13;1.48;;;;;;;29.65;30.57;97051.19;5074457;28;20020;-30
2022/07/17 01:47:21;;;;;;;1.55;1.40;;;;;;;29.67;30.58;97045.06;5074602;28;20028;-30
2022/07/17 01:49:50;;;;;;;1.75;1.60;;;;;;;29.67;30.76;97045.78;5074276;28;20026;-30
2022/07/17 01:52:15;;;;;;;2.17;1.50;;;;;;;29.63;30.51;97047.41;5074372;28;20023;-30
2022/07/17 01:54:42;;;;;;;2.53;1.70;;;;;;;29.63;30.76;97047.41;5074123;28;20020;-31
2022/07/17 01:57:08;;;;;;;1.70;1.60;;;;;;;29.62;30.51;97049.44;5074295;28;20024;-30
2022/07/17 01:59:34;;;;;;;2.15;1.80;;;;;;;29.62;30.74;97057.84;5074225;28;20035;-29
2022/07/17 02:02:00;;;;;;;1.80;1.70;;;;;;;29.57;31.05;97052.34;5074241;28;20040;-30
2022/07/17 02:04:26;;;;;;;1.80;1.50;;;;;;;29.60;30.53;97049.25;5073949;28;20028;-30
2022/07/17 02:06:54;;;;;;;2.45;1.73;;;;;;;29.60;30.57;97059.66;5074014;28;20024;-30
2022/07/17 02:09:20;;;;;;;2.13;1.80;;;;;;;29.57;30.52;97052.34;5073682;28;20094;-30
2022/07/17 02:11:46;;;;;;;1.60;1.50;;;;;;;29.57;30.55;97052.34;5074123;28;20116;-30
2022/07/17 02:14:11;;;;;;;2.60;1.67;;;;;;;29.54;30.44;97048.63;5073913;28;20097;-30
2022/07/17 02:16:37;;;;;;;2.15;1.98;;;;;;;29.57;30.67;97053.09;5073960;28;20378;-30
2022/07/17 02:19:02;;;;;;;3.75;1.80;;;;;;;29.58;30.66;97048.25;5073823;28;20016;-31
2022/07/17 02:21:28;;;;;;;1.75;1.63;;;;;;;29.57;30.41;97046.75;5073778;28;20024;-29
2022/07/17 02:23:53;;;;;;;1.98;1.88;;;;;;;29.57;30.85;97047.50;5073699;28;20480;-30
2022/07/17 02:26:19;;;;;;;2.75;1.90;;;;;;;29.54;30.85;97047.84;5073631;28;20048;-30
2022/07/17 02:28:44;;;;;;;2.33;1.60;;;;;;;29.49;30.27;97043.88;5073610;28;20020;-30
2022/07/17 02:31:10;;;;;;;2.15;1.95;;;;;;;29.56;30.41;97050.84;5073813;28;20048;-30
2022/07/17 02:33:35;;;;;;;2.00;1.90;;;;;;;29.52;30.84;97048.41;5073633;28;20024;-30
2022/07/17 02:36:01;;;;;;;1.98;1.65;;;;;;;29.48;30.71;97044.41;5072850;28;20056;-32
2022/07/17 02:38:27;;;;;;;2.17;1.98;;;;;;;29.53;31.11;97040.75;5073489;28;20032;-30
2022/07/17 02:40:53;;;;;;;2.20;2.00;;;;;;;29.54;30.78;97042.28;5073514;28;20518;-30
2022/07/17 02:43:18;;;;;;;2.13;1.92;;;;;;;29.48;30.86;97045.16;5073401;28;20135;-29
2022/07/17 02:45:44;;;;;;;2.45;1.90;;;;;;;29.49;30.63;97046.69;5073330;28;20023;-30
2022/07/17 02:48:09;;;;;;;2.20;2.05;;;;;;;29.52;30.73;97045.59;5073463;28;20481;-29
2022/07/17 02:50:35;;;;;;;2.03;1.92;;;;;;;29.48;30.79;97045.16;5073428;28;20108;-30
2022/07/17 02:53:00;;;;;;;2.22;2.03;;;;;;;29.45;30.64;97042.69;5073158;28;20024;-29
2022/07/17 02:55:26;;;;;;;2.70;1.90;;;;;;;29.48;30.42;97044.41;5073348;28;20024;-30
2022/07/17 02:57:51;;;;;;;2.13;1.98;;;;;;;29.50;30.53;97045.38;5073231;28;20035;-30
2022/07/17 03:00:17;;;;;;;1.77;1.67;;;;;;;29.49;31.11;97046.69;5073447;28;20035;-30
2022/07/17 03:02:44;;;;;;;1.95;1.85;;;;;;;29.43;30.61;97046.03;5073113;28;20031;-30
2022/07/17 03:05:11;;;;;;;3.22;2.08;;;;;;;29.49;30.75;97037.53;5073297;28;20031;-30
2022/07/17 03:07:36;;;;;;;3.88;2.10;;;;;;;29.47;30.84;97043.66;5073168;28;20033;-30
2022/07/17 03:10:03;;;;;;;2.53;2.00;;;;;;;29.51;30.75;97035.72;5073170;28;20115;-30
2022/07/17 03:12:28;;;;;;;2.25;2.05;;;;;;;29.50;30.90;97039.03;5073257;28;20077;-30
2022/07/17 03:14:54;;;;;;;2.20;2.00;;;;;;;29.47;30.91;97034.53;5073315;28;20115;-30
2022/07/17 03:17:19;;;;;;;3.47;1.92;;;;;;;29.50;30.63;97039.03;5073196;28;20466;-31
2022/07/17 03:19:45;;;;;;;2.05;1.90;;;;;;;29.46;30.97;97042.16;5073066;28;20024;-30
2022/07/17 03:22:10;;;;;;;3.20;1.92;;;;;;;29.47;31.00;97038.06;5073037;28;20440;-31
2022/07/17 03:24:36;;;;;;;2.38;2.17;;;;;;;29.47;30.88;97043.66;5072855;28;20048;-30
2022/07/17 03:27:01;;;;;;;2.28;1.92;;;;;;;29.42;31.00;97041.75;5073214;28;20024;-30
2022/07/17 03:29:27;;;;;;;4.60;2.00;;;;;;;29.47;30.72;97032.47;5073081;28;20032;-30
2022/07/17 03:31:53;;;;;;;1.92;1.77;;;;;;;29.43;30.92;97039.69;5072950;28;20020;-30
2022/07/17 03:34:18;;;;;;;2.42;2.08;;;;;;;29.42;31.10;97041.75;5073017;28;20078;-30
2022/07/17 03:36:44;;;;;;;2.60;2.13;;;;;;;29.43;31.21;97042.47;5073178;28;20029;-30
2022/07/17 03:39:09;;;;;;;2.45;2.20;;;;;;;29.40;30.94;97038.75;5072949;28;20025;-30
2022/07/17 03:41:35;;;;;;;2.13;2.03;;;;;;;29.41;31.14;97045.84;5073068;28;20458;-30
2022/07/17 03:44:00;;;;;;;1.98;1.88;;;;;;;29.41;31.35;97045.84;5072950;28;20017;-30
2022/07/17 03:46:26;;;;;;;2.30;1.92;;;;;;;29.36;31.18;97043.84;5071550;28;20112;-31
2022/07/17 03:48:51;;;;;;;2.35;2.15;;;;;;;29.37;31.46;97042.56;5076577;28;20023;-29
2022/07/17 03:51:17;;;;;;;3.50;2.00;;;;;;;29.38;31.33;97054.53;5076692;28;20441;-30
2022/07/17 03:53:42;;;;;;;1.77;1.67;;;;;;;29.38;31.50;97046.16;5076643;28;20028;-30
2022/07/17 03:56:08;;;;;;;2.30;2.03;;;;;;;29.37;31.53;97053.75;5076588;28;20085;-30
2022/07/17 03:58:34;;;;;;;2.35;2.15;;;;;;;29.35;31.61;97050.72;5076557;28;20101;-30
2022/07/17 04:01:00;;;;;;;2.30;2.10;;;;;;;29.38;31.45;97055.28;5076372;28;20024;-30
2022/07/17 04:03:25;;;;;;;2.40;2.08;;;;;;;29.36;31.61;97052.25;5076782;28;20031;-31
2022/07/17 04:05:51;;;;;;;3.22;2.30;;;;;;;29.36;31.52;97052.25;5076423;28;20081;-30
2022/07/17 04:08:18;;;;;;;2.15;2.03;;;;;;;29.34;31.78;97059.66;5076015;28;20048;-29
2022/07/17 04:10:44;;;;;;;1.77;1.67;;;;;;;29.33;31.49;97049.75;5076386;28;20048;-31
2022/07/17 04:13:10;;;;;;;2.65;1.80;;;;;;;29.30;31.83;97048.81;5076338;28;20537;-30
2022/07/17 04:15:55;;;;;;;3.25;1.90;;;;;;;29.28;31.91;97051.41;5076190;28;20147;-30
2022/07/17 04:18:26;;;;;;;2.05;1.85;;;;;;;29.34;31.89;97052.03;5076257;28;20385;-30
2022/07/17 04:20:52;;;;;;;2.10;1.90;;;;;;;29.33;31.94;97058.91;5076036;28;20521;-29
2022/07/17 04:23:18;;;;;;;1.90;1.70;;;;;;;29.33;32.12;97055.34;5075994;28;20032;-30
2022/07/17 04:25:44;;;;;;;3.05;2.00;;;;;;;29.28;32.05;97059.78;5076052;28;20028;-29
2022/07/17 04:28:10;;;;;;;2.40;2.20;;;;;;;29.28;32.18;97056.97;5076208;28;20024;-30
2022/07/17 04:30:36;;;;;;;3.75;2.10;;;;;;;29.29;31.99;97058.50;5076058;28;20359;-29
2022/07/17 04:33:02;;;;;;;2.65;2.08;;;;;;;29.31;32.23;97059.44;5076461;28;20024;-31
2022/07/17 04:35:28;;;;;;;2.55;1.90;;;;;;;29.27;32.23;97063.84;5075964;28;20028;-30
2022/07/17 04:37:54;;;;;;;3.28;2.10;;;;;;;29.26;32.38;97062.34;5075655;28;20047;-30
2022/07/17 04:40:20;;;;;;;2.58;2.13;;;;;;;29.29;32.28;97061.28;5075831;28;20024;-29
2022/07/17 04:42:45;;;;;;;5.72;1.98;;;;;;;29.28;32.27;97065.38;5075575;28;20044;-30
2022/07/17 04:45:11;;;;;;;4.63;2.53;;;;;;;29.29;32.50;97064.81;5075661;28;20492;-30
2022/07/17 04:47:36;;;;;;;3.05;2.00;;;;;;;29.28;32.57;97070.94;5075595;28;20029;-30
2022/07/17 04:50:02;;;;;;;2.90;2.00;;;;;;;29.27;32.49;97070.19;5075661;28;20021;-29
2022/07/17 04:52:28;;;;;;;4.18;2.10;;;;;;;29.30;32.53;97069.09;5075689;28;20063;-30
2022/07/17 04:54:53;;;;;;;2.55;2.00;;;;;;;29.27;32.53;97066.66;5075467;28;20024;-30
2022/07/17 04:57:19;;;;;;;6.07;2.38;;;;;;;29.27;32.65;97069.44;5075221;28;20028;-30
2022/07/17 04:59:44;;;;;;;3.53;2.20;;;;;;;29.30;32.63;97074.69;5075065;28;20112;-30
2022/07/17 05:02:10;;;;;;;2.88;2.10;;;;;;;29.26;32.72;97076.31;5075304;28;20381;-30
2022/07/17 05:04:35;;;;;;;2.55;2.28;;;;;;;29.29;32.68;97076.00;5075255;28;20028;-30
2022/07/17 05:07:01;;;;;;;3.83;2.10;;;;;;;29.25;32.80;97089.53;5075275;28;20031;-31
2022/07/17 05:09:26;;;;;;;3.25;2.15;;;;;;;29.30;32.83;97079.56;5075015;28;20059;-31
2022/07/17 05:11:52;;;;;;;2.10;1.90;;;;;;;29.26;33.01;97084.69;5075227;28;20025;-31
2022/07/17 05:14:18;;;;;;;3.95;2.25;;;;;;;29.29;32.83;97089.22;5075246;28;20355;-29
2022/07/17 05:16:43;;;;;;;2.70;2.08;;;;;;;29.30;33.18;97079.56;5074911;28;20024;-30
2022/07/17 05:19:09;;;;;;;2.97;2.10;;;;;;;29.25;32.99;97078.34;5075095;28;20024;-30
2022/07/17 05:21:34;;;;;;;2.25;2.05;;;;;;;29.23;33.23;97078.13;5075235;28;20020;-30
2022/07/17 05:24:00;;;;;;;2.90;2.05;;;;;;;29.29;33.00;97084.38;5074752;28;20502;-30
2022/07/17 05:26:26;;;;;;;2.85;2.08;;;;;;;29.26;33.33;97090.28;5074837;28;20077;-30
2022/07/17 05:28:52;;;;;;;4.82;2.03;;;;;;;29.30;33.19;97091.44;5074864;28;20024;-30
2022/07/17 05:31:17;;;;;;;1.90;1.80;;;;;;;29.24;33.26;97088.03;5074800;28;20028;-30
2022/07/17 05:33:43;;;;;;;3.38;2.13;;;;;;;29.33;33.47;97089.63;5077483;28;20533;-29
2022/07/17 05:36:09;;;;;;;2.20;2.00;;;;;;;29.27;33.45;97091.78;5084706;28;20030;-30
2022/07/17 05:38:34;;;;;;;4.13;2.25;;;;;;;29.28;33.33;97094.06;5093074;28;20089;-31
2022/07/17 05:41:00;;;;;;;2.10;2.00;;;;;;;29.30;33.44;97087.94;5074255;28;20414;-30
2022/07/17 05:43:25;;;;;;;4.30;2.10;;;;;;;29.28;33.53;97094.06;5072668;28;20032;-30
2022/07/17 05:45:54;;;;;;;2.17;1.98;;;;;;;29.26;33.50;97096.63;5072055;28;20028;-30
2022/07/17 05:48:21;;;;;;;2.67;2.10;;;;;;;29.27;33.55;97097.38;5072726;28;20443;-30
2022/07/17 05:50:46;;;;;;;2.33;2.13;;;;;;;29.29;33.52;97089.22;5071119;28;20469;-30
2022/07/17 05:53:12;;;;;;;2.10;1.90;;;;;;;29.33;33.54;97100.81;5091278;28;20110;-31
2022/07/17 05:55:37;;;;;;;2.38;2.00;;;;;;;29.32;33.60;97093.72;5092682;28;20024;-30
2022/07/17 05:58:03;;;;;;;2.20;2.00;;;;;;;29.30;33.40;97090.72;5091050;28;20035;-30
2022/07/17 06:00:29;;;;;;;2.75;2.00;;;;;;;29.30;33.69;97090.72;5092539;28;20478;-30
2022/07/17 06:02:54;;;;;;;2.55;2.10;;;;;;;29.30;33.53;97088.66;5092344;28;20478;-30
2022/07/17 06:05:20;;;;;;;2.28;2.00;;;;;;;29.27;33.68;97091.78;5091130;28;20596;-30
2022/07/17 06:07:45;;;;;;;2.60;2.17;;;;;;;29.27;33.93;97098.13;5092600;28;20161;-30
2022/07/17 06:10:11;;;;;;;2.25;2.05;;;;;;;29.27;33.89;97100.94;5088646;28;20052;-30
2022/07/17 06:12:37;;;;;;;2.10;2.00;;;;;;;29.28;33.89;97098.88;5090370;28;20385;-29
2022/07/17 06:15:02;;;;;;;2.45;1.90;;;;;;;29.31;33.77;97098.53;5092245;28;20032;-30
2022/07/17 06:17:28;;;;;;;2.75;2.03;;;;;;;29.29;33.88;97101.16;5092118;28;20375;-30
2022/07/17 06:19:54;;;;;;;2.53;2.33;;;;;;;29.32;33.87;97102.09;5091916;28;20056;-29
2022/07/17 06:22:20;;;;;;;2.03;1.88;;;;;;;29.27;34.18;97102.97;5091960;28;20026;-31
2022/07/17 06:24:47;;;;;;;2.25;1.90;;;;;;;29.34;33.87;97101.56;5092083;28;20421;-31
2022/07/17 06:27:13;;;;;;;2.20;2.00;;;;;;;29.30;33.94;97101.91;5092196;28;20458;-30
2022/07/17 06:29:38;;;;;;;2.90;2.08;;;;;;;29.28;34.03;97098.88;5092058;28;20096;-30
2022/07/17 06:32:04;;;;;;;3.28;1.95;;;;;;;29.25;33.97;97102.75;5092084;28;20036;-30
2022/07/17 06:34:30;;;;;;;2.42;2.00;;;;;;;29.29;33.82;97101.16;5091119;28;20059;-30
2022/07/17 06:36:55;;;;;;;2.83;2.13;;;;;;;29.24;33.92;97102.00;5091249;28;20036;-30
2022/07/17 06:39:21;;;;;;;2.70;1.90;;;;;;;29.12;33.99;97103.47;5091956;28;20469;-30
2022/07/17 06:41:47;;;;;;;2.40;2.08;;;;;;;29.22;34.07;97107.34;5091768;28;20020;-31
2022/07/17 06:44:12;;;;;;;2.05;1.85;;;;;;;29.16;33.82;97108.75;5091659;28;20028;-30
2022/07/17 06:46:38;;;;;;;2.70;2.10;;;;;;;29.24;34.22;97115.19;5091469;28;20052;-30
2022/07/17 06:49:03;;;;;;;2.20;2.00;;;;;;;29.29;34.05;97111.56;5091801;28;20389;-30
2022/07/17 06:51:29;;;;;;;2.30;2.15;;;;;;;29.21;33.87;97105.84;5091711;28;20063;-30
2022/07/17 06:53:54;;;;;;;2.15;1.83;;;;;;;29.24;33.99;97115.19;5091849;28;20112;-30
2022/07/17 06:56:19;;;;;;;2.22;1.83;;;;;;;29.24;34.20;97115.97;5091581;28;20058;-30
2022/07/17 06:58:51;;;;;;;1.90;1.80;;;;;;;29.26;33.89;97109.84;5091293;28;20024;-30
2022/07/17 07:01:16;;;;;;;2.38;1.92;;;;;;;29.28;33.70;97110.81;5073200;28;20025;-30
2022/07/17 07:03:42;;;;;;;3.38;2.20;;;;;;;29.28;33.61;97108.03;5073121;28;20168;-30
2022/07/17 07:06:08;;;;;;;2.20;1.90;;;;;;;29.24;34.00;97115.19;5073337;28;20039;-30
2022/07/17 07:08:34;;;;;;;3.05;2.10;;;;;;;29.21;33.64;97113.47;5073072;28;20056;-29
2022/07/17 07:11:01;;;;;;;2.40;1.85;;;;;;;29.20;33.67;97111.97;5073729;28;20032;-30
2022/07/17 07:13:26;;;;;;;2.20;2.00;;;;;;;29.19;33.83;97113.25;5073246;28;20096;-30
2022/07/17 07:15:52;;;;;;;2.15;1.95;;;;;;;29.20;33.99;97109.94;5073012;28;20104;-30
2022/07/17 07:18:18;;;;;;;2.83;1.83;;;;;;;29.23;33.80;97108.09;5073298;28;20024;-30
2022/07/17 07:20:43;;;;;;;2.05;1.85;;;;;;;29.24;33.99;97104.03;5073804;28;20032;-30
2022/07/17 07:23:09;;;;;;;3.65;2.15;;;;;;;29.07;33.41;97100.78;5077347;28;20040;-31
2022/07/17 07:25:35;;;;;;;3.33;2.17;;;;;;;29.21;33.53;97107.88;5077239;28;20021;-30
2022/07/17 07:28:01;;;;;;;3.58;1.95;;;;;;;29.15;33.87;97113.59;5077267;28;20021;-30
2022/07/17 07:30:26;;;;;;;2.85;1.83;;;;;;;29.07;33.98;97112.69;5077135;28;20122;-30
2022/07/17 07:32:51;;;;;;;2.35;1.80;;;;;;;29.22;33.79;97117.78;5077002;28;20047;-31
2022/07/17 07:35:17;;;;;;;2.72;2.30;;;;;;;29.22;33.63;97112.19;5077328;28;20069;-30
2022/07/17 07:37:42;;;;;;;2.20;1.95;;;;;;;29.05;33.32;97114.53;5076798;28;20155;-29
2022/07/17 07:40:09;;;;;;;2.30;2.10;;;;;;;29.16;33.45;97112.31;5077003;28;20504;-29
2022/07/17 07:42:34;;;;;;;2.42;2.00;;;;;;;29.17;33.60;97113.06;5076722;28;20024;-32
2022/07/17 07:45:00;;;;;;;3.85;2.30;;;;;;;29.22;33.62;97117.78;5076810;28;20077;-30
2022/07/17 07:47:25;;;;;;;2.58;2.03;;;;;;;29.24;33.66;97113.16;5077003;28;20025;-30
2022/07/17 07:49:51;;;;;;;2.25;2.05;;;;;;;29.23;33.72;97114.44;5076693;28;20432;-30
2022/07/17 07:52:16;;;;;;;2.20;2.10;;;;;;;29.22;33.56;97112.94;5076765;28;20021;-29
2022/07/17 07:54:43;;;;;;;2.25;2.05;;;;;;;29.03;33.89;97122.69;5076630;28;20024;-29
2022/07/17 07:57:08;;;;;;;2.15;2.05;;;;;;;28.68;33.99;97118.94;5076701;28;20589;-30
2022/07/17 07:59:34;;;;;;;3.28;2.10;;;;;;;28.93;33.87;97122.38;5076746;28;20048;-30
2022/07/17 08:02:00;;;;;;;2.63;2.20;;;;;;;29.04;33.68;97122.16;5076286;28;20090;-30
2022/07/17 08:04:26;;;;;;;3.38;2.10;;;;;;;29.13;33.64;97126.56;5076256;28;20440;-30
2022/07/17 08:06:52;;;;;;;2.60;2.20;;;;;;;29.03;33.07;97128.28;5076436;28;20103;-30
2022/07/17 08:09:17;;;;;;;2.65;2.42;;;;;;;29.05;33.11;97132.06;5076129;28;20498;-30
2022/07/17 08:11:43;;;;;;;3.67;2.30;;;;;;;29.16;33.46;97131.09;5076183;28;20039;-30
2022/07/17 08:14:08;;;;;;;2.80;2.20;;;;;;;29.24;33.42;97131.97;5076571;28;20481;-30
2022/07/17 08:16:34;;;;;;;2.40;1.95;;;;;;;29.27;33.49;97128.88;5076549;28;20370;-30
2022/07/17 08:19:00;;;;;;;2.58;2.20;;;;;;;29.24;33.20;97137.56;5076068;28;20024;-30
2022/07/17 08:21:26;;;;;;;2.28;2.03;;;;;;;29.22;33.38;97123.38;5076051;28;20107;-30
2022/07/17 08:23:51;;;;;;;2.67;2.30;;;;;;;29.24;33.58;97126.38;5076241;28;20029;-30
2022/07/17 08:26:17;;;;;;;2.38;2.17;;;;;;;29.25;33.23;97133.47;5076196;28;20028;-30
2022/07/17 08:28:42;;;;;;;3.05;2.17;;;;;;;29.11;33.45;97129.91;5076259;28;20032;-29
2022/07/17 08:31:08;;;;;;;2.67;2.20;;;;;;;29.21;33.47;97130.22;5075980;28;20485;-30
2022/07/17 08:33:33;;;;;;;3.85;2.20;;;;;;;29.24;32.89;97131.97;5074966;28;20024;-29
2022/07/17 08:35:59;;;;;;;2.40;2.20;;;;;;;29.23;33.16;97130.47;5075894;28;20028;-30
2022/07/17 08:38:25;;;;;;;3.25;2.40;;;;;;;29.28;33.03;97133.16;5075884;28;20032;-30
2022/07/17 08:40:53;;;;;;;2.95;2.20;;;;;;;29.22;33.01;97134.53;5075851;28;20027;-31
2022/07/17 08:43:19;;;;;;;4.43;2.42;;;;;;;29.04;33.13;97140.97;5075983;28;20102;-30
2022/07/17 08:45:45;;;;;;;2.55;2.17;;;;;;;29.24;32.63;97134.75;5075838;28;20020;-31
2022/07/17 08:48:16;;;;;;;2.72;2.35;;;;;;;29.20;33.17;97131.53;5075691;28;20023;-29
2022/07/17 08:50:42;;;;;;;4.97;2.72;;;;;;;29.24;32.81;97131.97;5075962;28;20073;-30
2022/07/17 08:53:08;;;;;;;2.38;2.17;;;;;;;29.26;32.97;97140.56;5075533;28;20099;-30
2022/07/17 08:55:34;;;;;;;2.53;2.33;;;;;;;29.18;33.26;97142.47;5081512;28;20107;-30
2022/07/17 08:58:00;;;;;;;3.25;2.22;;;;;;;29.22;33.23;97134.53;5093863;28;20036;-30
2022/07/17 09:00:27;;;;;;;2.60;2.40;;;;;;;29.27;33.12;97133.69;5093763;28;20030;-29
2022/07/17 09:03:01;;;;;;;2.55;2.35;;;;;;;29.20;33.07;97143.44;5093684;28;20032;-30
2022/07/17 09:05:33;;;;;;;2.50;2.30;;;;;;;29.23;33.40;97136.03;5093800;28;20055;-30
2022/07/17 09:07:59;;;;;;;2.40;2.20;;;;;;;29.25;33.06;97144.66;5091625;28;20052;-30
2022/07/17 09:10:34;;;;;;;2.50;2.30;;;;;;;29.21;32.96;97133.03;5093419;28;20091;-30
2022/07/17 09:13:01;;;;;;;2.70;2.30;;;;;;;29.32;32.84;97135.63;5093620;28;20473;-30
2022/07/17 09:15:27;;;;;;;2.63;2.42;;;;;;;29.31;32.68;97137.66;5093391;28;20055;-30
2022/07/17 09:17:55;;;;;;;2.85;2.63;;;;;;;29.34;32.73;97135.84;5092006;28;20054;-29
2022/07/17 09:20:22;;;;;;;2.60;2.40;;;;;;;29.30;32.94;97136.16;5093241;28;20116;-30
2022/07/17 09:23:04;;;;;;;2.63;2.42;;;;;;;29.30;32.79;97141.00;5093273;28;20059;-30
2022/07/17 09:25:44;;;;;;;2.90;2.70;;;;;;;29.31;32.61;97134.88;5093487;28;20028;-30
2022/07/17 09:28:12;;;;;;;2.67;2.47;;;;;;;29.34;32.60;97135.84;5093174;28;20044;-30
2022/07/17 09:30:45;;;;;;;3.20;2.50;;;;;;;29.35;32.58;97140.13;5093055;28;20032;-30
2022/07/17 09:33:19;;;;;;;5.20;2.50;;;;;;;29.33;32.37;97137.13;5093023;28;20020;-31
2022/07/17 09:35:49;;;;;;;2.42;2.22;;;;;;;29.29;32.34;97137.47;5093107;28;20028;-31
2022/07/17 09:38:30;;;;;;;2.63;2.42;;;;;;;29.33;32.02;97137.13;5091750;28;20426;-30
2022/07/17 09:41:11;;;;;;;2.25;2.05;;;;;;;29.28;32.26;97132.41;5092910;28;20028;-30
2022/07/17 09:43:52;;;;;;;3.33;2.47;;;;;;;29.33;31.85;97134.34;5092527;28;20069;-30
2022/07/17 09:46:21;;;;;;;3.15;2.40;;;;;;;29.24;31.91;97134.75;5092960;28;20032;-30
2022/07/17 09:48:49;;;;;;;3.25;2.42;;;;;;;29.30;32.13;97133.34;5092956;28;20107;-30
2022/07/17 09:51:37;;;;;;;2.55;2.35;;;;;;;29.27;31.93;97133.69;5092713;28;20089;-30
2022/07/17 09:54:05;;;;;;;2.67;2.42;;;;;;;29.34;31.74;97135.84;5092768;28;20080;-31
2022/07/17 09:56:35;;;;;;;2.88;2.33;;;;;;;29.31;31.65;97140.44;5092426;28;20032;-30
2022/07/17 09:59:03;;;;;;;3.38;2.25;;;;;;;29.34;31.60;97138.63;5092720;28;20412;-30
2022/07/17 10:01:28;;;;;;;4.32;2.40;;;;;;;29.30;31.70;97129.84;5092462;28;20028;-30
2022/07/17 10:03:54;;;;;;;2.55;2.35;;;;;;;29.34;31.48;97137.88;5092316;28;20134;-30
2022/07/17 10:06:21;;;;;;;2.70;2.50;;;;;;;29.29;31.48;97133.91;5092337;28;20024;-30
2022/07/17 10:08:47;;;;;;;3.70;2.38;;;;;;;29.26;31.50;97138.53;5090526;28;20430;-30
2022/07/17 10:11:15;;;;;;;2.17;2.08;;;;;;;29.33;31.31;97134.34;5092289;28;20030;-30
2022/07/17 10:13:43;;;;;;;3.22;2.53;;;;;;;29.37;31.23;97140.38;5092193;28;20047;-30
2022/07/17 10:16:09;;;;;;;2.55;2.30;;;;;;;29.33;31.53;97134.34;5092044;28;20039;-30
2022/07/17 10:18:43;;;;;;;2.90;2.20;;;;;;;29.38;31.26;97133.50;5091807;28;20079;-30
2022/07/17 10:21:09;;;;;;;3.55;2.40;;;;;;;29.39;30.82;97131.47;5091925;28;20178;-30
2022/07/17 10:23:35;;;;;;;2.35;2.10;;;;;;;29.35;30.73;97126.16;5091716;28;20107;-30
2022/07/17 10:26:01;;;;;;;2.50;2.30;;;;;;;29.35;30.98;97128.22;5091835;28;20114;-29
2022/07/17 10:28:39;;;;;;;2.72;2.53;;;;;;;29.33;30.79;97128.75;5084166;28;20482;-30
2022/07/17 10:31:04;;;;;;;2.67;2.38;;;;;;;29.40;31.09;97128.16;5087603;28;20428;-30
2022/07/17 10:33:30;;;;;;;3.78;2.45;;;;;;;29.43;31.14;97135.44;5088751;28;20020;-30
2022/07/17 10:35:59;;;;;;;3.35;2.28;;;;;;;29.41;31.14;97135.25;5071287;28;20024;-30
2022/07/17 10:38:27;;;;;;;3.92;2.88;;;;;;;29.42;31.18;97127.63;5071616;28;20426;-30
2022/07/17 10:41:00;;;;;;;2.70;2.40;;;;;;;29.40;31.40;97136.53;5071253;28;20094;-31
2022/07/17 10:43:26;;;;;;;2.30;2.10;;;;;;;29.33;31.75;97131.53;5070868;28;20044;-30
2022/07/17 10:45:52;;;;;;;2.97;2.30;;;;;;;29.38;31.95;97130.72;5075661;28;20078;-30
2022/07/17 10:48:19;;;;;;;4.30;2.60;;;;;;;29.43;31.69;97132.66;5091523;28;20024;-30
2022/07/17 10:50:54;;;;;;;2.35;2.10;;;;;;;29.51;31.34;97127.19;5090363;28;20032;-30
2022/07/17 10:53:31;;;;;;;2.65;2.45;;;;;;;29.49;31.35;97124.91;5091621;28;20024;-31
2022/07/17 10:56:05;;;;;;;3.65;2.42;;;;;;;29.47;31.46;97124.69;5090704;28;20567;-30
2022/07/17 10:58:39;;;;;;;3.15;2.28;;;;;;;29.23;31.59;97127.66;5091712;28;20036;-29
2022/07/17 11:01:15;;;;;;;2.67;2.47;;;;;;;29.37;31.59;97131.22;5091535;28;20489;-30
2022/07/17 11:03:49;;;;;;;2.83;2.40;;;;;;;29.48;31.49;97129.00;5091554;28;20478;-30
2022/07/17 11:06:24;;;;;;;3.60;2.20;;;;;;;29.51;31.13;97125.16;5091367;28;20028;-30
2022/07/17 11:08:54;;;;;;;2.50;2.30;;;;;;;29.51;31.46;97118.78;5089681;28;20063;-30
2022/07/17 11:11:22;;;;;;;3.50;2.55;;;;;;;29.41;31.43;97121.28;5091478;28;20145;-30
2022/07/17 11:13:48;;;;;;;2.50;2.30;;;;;;;29.40;31.71;97116.97;5091372;28;20020;-30
2022/07/17 11:16:27;;;;;;;2.70;2.50;;;;;;;29.40;31.68;97124.59;5091446;28;20339;-30
2022/07/17 11:18:54;;;;;;;3.25;2.33;;;;;;;29.39;31.65;97126.66;5090659;28;20028;-30
2022/07/17 11:21:19;;;;;;;2.60;2.40;;;;;;;29.44;31.45;97125.78;5089367;28;20024;-30
2022/07/17 11:23:53;;;;;;;2.83;2.42;;;;;;;29.43;31.37;97121.47;5071821;28;20020;-31
2022/07/17 11:26:20;;;;;;;3.75;2.40;;;;;;;29.42;31.57;97124.81;5072893;28;20099;-29
2022/07/17 11:28:46;;;;;;;2.45;2.25;;;;;;;29.46;31.48;97120.41;5076881;28;20028;-30
2022/07/17 11:31:23;;;;;;;3.20;2.78;;;;;;;29.52;31.51;97101.50;5075847;28;20028;-30
2022/07/17 11:33:57;;;;;;;3.72;2.20;;;;;;;29.55;31.39;97111.56;5084565;28;20063;-29